Time;durP1;ratioP1;P1;durP2;ratioP2;P2;SDS_P1;SDS_P2;PMS_P1;PMS_P2;Temp;Humidity;BMP_temperature;BMP_pressure;BME280_temperature;BME280_humidity;BME280_pressure;Samples;Min_cycle;Max_cycle;Signal;HPM_P1;HPM_P2
2021/12/22 00:00:18;;;;;;;30.30;14.93;;;;;;;-3.20;78.57;101102.63;1650740;86;26390;-76
2021/12/22 00:02:48;;;;;;;29.18;14.90;;;;;;;-3.17;78.59;101098.75;1652919;86;25772;-77
2021/12/22 00:05:28;;;;;;;29.30;14.68;;;;;;;-3.19;78.67;101095.78;1653599;86;25535;-74
2021/12/22 00:07:55;;;;;;;27.10;14.23;;;;;;;-3.17;78.50;101107.50;1652493;86;27466;-75
2021/12/22 00:10:22;;;;;;;27.17;13.68;;;;;;;-3.17;78.65;101104.85;1653600;86;25486;-75
2021/12/22 00:12:51;;;;;;;31.23;15.25;;;;;;;-3.16;78.71;101108.34;1653681;86;25763;-74
2021/12/22 00:15:18;;;;;;;30.32;14.40;;;;;;;-3.14;78.70;101107.63;1656070;86;26138;-74
2021/12/22 00:17:45;;;;;;;26.55;14.05;;;;;;;-3.14;78.61;101111.08;1653804;86;25329;-76
2021/12/22 00:20:13;;;;;;;26.60;14.03;;;;;;;-3.17;78.39;101110.66;1653645;86;27270;-75
2021/12/22 00:22:49;;;;;;;33.90;16.02;;;;;;;-3.20;78.38;101103.44;1654074;86;25791;-75
2021/12/22 00:25:17;;;;;;;35.15;16.40;;;;;;;-3.22;78.21;101100.66;1600996;89;25484;-74
2021/12/22 00:27:44;;;;;;;31.70;16.80;;;;;;;-3.23;77.97;101106.98;1600485;89;26214;-76
2021/12/22 00:30:11;;;;;;;29.67;14.53;;;;;;;-3.24;78.15;101106.15;1600146;89;26336;-75
2021/12/22 00:32:39;;;;;;;34.38;17.00;;;;;;;-3.26;77.97;101113.98;1600399;89;27363;-75
2021/12/22 00:35:09;;;;;;;40.25;18.32;;;;;;;-3.29;77.89;101106.44;1585658;89;25847;-75
2021/12/22 00:37:35;;;;;;;;;;;;;;;-3.34;77.80;101099.60;1580555;90;25691;-75
2021/12/22 00:40:01;;;;;;;48.65;25.75;;;;;;;-3.36;77.89;101107.73;1573740;91;25708;-75
2021/12/22 00:42:28;;;;;;;48.10;25.45;;;;;;;-3.41;77.75;101109.63;1573826;90;25817;-75
2021/12/22 00:44:55;;;;;;;48.40;24.45;;;;;;;-3.43;77.85;101108.21;1573848;90;27509;-75
2021/12/22 00:47:26;;;;;;;48.83;22.32;;;;;;;-3.47;78.08;101114.41;1573720;90;25518;-75
2021/12/22 00:49:53;;;;;;;50.67;23.95;;;;;;;-3.47;78.16;101126.82;1573726;90;25779;-75
2021/12/22 00:52:28;;;;;;;41.50;22.45;;;;;;;-3.50;78.12;101125.37;1574436;90;25624;-74
2021/12/22 00:54:57;;;;;;;38.08;20.10;;;;;;;-3.52;78.15;101125.23;1525997;94;25650;-74
2021/12/22 00:57:24;;;;;;;40.17;18.80;;;;;;;-3.53;78.38;101131.05;1524714;94;27983;-74
2021/12/22 00:59:50;;;;;;;39.33;18.15;;;;;;;-3.52;78.61;101131.36;1524442;94;25544;-76
2021/12/22 01:02:20;;;;;;;34.40;17.45;;;;;;;-3.52;78.56;101125.23;1526077;93;25831;-76
2021/12/22 01:04:47;;;;;;;38.90;18.45;;;;;;;-3.51;78.62;101131.66;1529538;93;25714;-75
2021/12/22 01:07:15;;;;;;;36.33;17.65;;;;;;;-3.50;78.83;101128.53;1529107;93;25788;-76
2021/12/22 01:09:42;;;;;;;40.65;18.85;;;;;;;-3.50;78.89;101132.50;1529368;93;27409;-75
2021/12/22 01:12:09;;;;;;;34.55;17.35;;;;;;;-3.49;78.97;101130.98;1529169;93;25557;-76
2021/12/22 01:14:38;;;;;;;39.75;19.15;;;;;;;-3.47;78.97;101129.47;1529144;93;25864;-75
2021/12/22 01:17:07;;;;;;;40.08;19.48;;;;;;;-3.46;79.04;101133.21;1528784;93;25810;-75
2021/12/22 01:19:45;;;;;;;40.83;19.77;;;;;;;-3.45;79.04;101134.86;1529385;93;25815;-74
2021/12/22 01:22:32;;;;;;;51.80;25.08;;;;;;;-3.44;78.93;101128.56;1528131;93;27372;-75
2021/12/22 01:25:03;;;;;;;65.45;29.42;;;;;;;-3.44;78.61;101122.44;1526916;93;25803;-77
2021/12/22 01:27:37;;;;;;;39.23;19.30;;;;;;;-3.45;78.43;101120.30;1529216;93;25731;-77
2021/12/22 01:30:20;;;;;;;39.27;18.65;;;;;;;-3.47;78.17;101118.89;1529233;93;26230;-77
2021/12/22 01:32:51;;;;;;;38.00;18.02;;;;;;;-3.52;78.22;101121.27;1526075;93;25606;-76
2021/12/22 01:35:22;;;;;;;39.53;18.45;;;;;;;-3.57;77.92;101125.33;1528136;93;27939;-76
2021/12/22 01:37:49;;;;;;;34.70;18.57;;;;;;;-3.59;77.99;101134.48;1527319;93;25804;-76
2021/12/22 01:40:17;;;;;;;35.58;18.17;;;;;;;-3.62;77.82;101138.84;1527271;93;25640;-76
2021/12/22 01:42:45;;;;;;;38.70;18.00;;;;;;;-3.67;77.63;101149.98;1527459;93;26206;-76
2021/12/22 01:50:44;;;;;;;41.10;18.48;;;;;;;-3.85;77.79;101159.71;1609332;89;25431;-75
2021/12/22 01:53:34;;;;;;;39.60;17.07;;;;;;;-3.92;77.93;101161.49;1603221;89;25685;-76
2021/12/22 01:56:20;;;;;;;39.00;17.90;;;;;;;-3.95;77.84;101163.19;1554657;91;25689;-76
2021/12/22 01:58:44;;;;;;;37.58;16.95;;;;;;;-4.01;77.89;101169.27;1553736;91;25557;-76
2021/12/22 02:01:12;;;;;;;34.65;17.17;;;;;;;-4.06;77.87;101166.38;1554385;91;27375;-76
2021/12/22 02:03:39;;;;;;;40.40;18.95;;;;;;;-4.13;77.85;101166.31;1554433;92;25671;-76
2021/12/22 02:06:08;;;;;;;34.58;17.75;;;;;;;-4.17;77.76;101168.52;1554669;91;25768;-76
2021/12/22 02:08:40;;;;;;;36.58;18.17;;;;;;;-4.19;77.96;101160.45;1554948;91;25386;-76
2021/12/22 02:11:08;;;;;;;37.93;19.02;;;;;;;-4.20;78.19;101161.48;1554738;92;25302;-76
2021/12/22 02:13:39;;;;;;;41.50;18.40;;;;;;;-4.20;78.32;101162.29;1554693;92;27359;-76
2021/12/22 02:16:09;;;;;;;33.80;17.12;;;;;;;-4.20;78.58;101165.45;1534549;92;25593;-76
2021/12/22 02:18:40;;;;;;;37.33;17.82;;;;;;;-4.19;78.77;101164.42;1557027;91;25653;-76
2021/12/22 02:21:07;;;;;;;34.90;17.67;;;;;;;-4.19;78.92;101158.66;1556603;92;25766;-76
2021/12/22 02:23:35;;;;;;;42.48;20.52;;;;;;;-4.18;78.94;101164.75;1558745;92;25299;-76
2021/12/22 02:26:23;;;;;;;40.00;18.37;;;;;;;-4.19;78.94;101152.05;1557122;92;27340;-76
2021/12/22 02:28:47;;;;;;;36.88;18.25;;;;;;;-4.16;79.11;101154.80;1545305;92;25609;-76
2021/12/22 02:31:17;;;;;;;39.92;19.02;;;;;;;-4.16;79.17;101155.61;1546966;92;25544;-76
2021/12/22 02:33:46;;;;;;;40.30;19.27;;;;;;;-4.14;79.27;101156.73;1582674;90;26187;-75
2021/12/22 02:36:29;;;;;;;;;;;;;;;-4.13;79.07;101154.42;1604778;87;25572;-75
2021/12/22 02:38:54;;;;;;;36.77;18.12;;;;;;;-4.12;79.00;101153.40;1603506;89;27733;-75
2021/12/22 02:41:27;;;;;;;38.53;18.62;;;;;;;-4.13;79.15;101151.27;1609277;88;25770;-75
2021/12/22 02:43:56;;;;;;;45.98;22.37;;;;;;;-4.12;79.10;101150.75;1608703;88;25600;-75
2021/12/22 02:46:28;;;;;;;44.95;21.65;;;;;;;-4.13;79.14;101142.02;1608857;88;25701;-76
2021/12/22 02:48:55;;;;;;;49.20;26.00;;;;;;;-4.11;79.30;101148.95;1608772;88;25335;-76
2021/12/22 02:51:23;;;;;;;49.05;25.68;;;;;;;-4.11;79.48;101145.80;1608551;88;27332;-75
2021/12/22 03:04:22;;;;;;;40.60;20.55;;;;;;;-3.97;80.08;101156.80;1632860;87;27417;-77
2021/12/22 03:09:21;;;;;;;39.95;22.02;;;;;;;-3.89;79.94;101153.70;1632922;87;25562;-76
2021/12/22 03:11:49;;;;;;;41.58;21.95;;;;;;;-3.87;80.03;101154.31;1632851;87;26164;-76
2021/12/22 03:14:16;;;;;;;40.58;21.73;;;;;;;-3.85;80.13;101156.26;1632793;87;25653;-76
2021/12/22 03:16:44;;;;;;;41.55;22.77;;;;;;;-3.81;80.13;101162.81;1632870;87;27924;-76
2021/12/22 03:19:15;;;;;;;42.13;23.83;;;;;;;-3.80;80.21;101161.30;1643465;87;27028;-76
2021/12/22 03:22:12;;;;;;;39.38;21.75;;;;;;;-3.78;80.21;101155.31;1632921;87;25761;-76
2021/12/22 03:24:31;;;;;;;45.83;24.90;;;;;;;-3.75;80.20;101154.09;1634026;86;25507;-76
2021/12/22 03:27:03;;;;;;;36.58;21.00;;;;;;;-3.72;80.29;101160.84;1632975;87;25587;-77
2021/12/22 03:29:32;;;;;;;35.13;18.62;;;;;;;-3.72;80.23;101157.68;1632836;87;27340;-76
2021/12/22 03:31:59;;;;;;;;;;;;;;;-3.70;80.30;101172.03;1635216;87;25675;-76
2021/12/22 03:34:26;;;;;;;38.08;19.10;;;;;;;-3.69;80.51;101177.13;1633380;87;25521;-76
2021/12/22 03:36:53;;;;;;;33.25;19.40;;;;;;;-3.68;80.61;101168.17;1628610;87;25748;-76
2021/12/22 03:39:20;;;;;;;40.15;20.23;;;;;;;-3.65;80.57;101173.59;1649467;87;25494;-77
2021/12/22 03:41:48;;;;;;;39.42;19.70;;;;;;;-3.61;80.59;101174.83;1650807;86;27815;-77
2021/12/22 03:44:15;;;;;;;40.03;20.17;;;;;;;-3.58;80.61;101180.55;1649394;87;25668;-78
2021/12/22 03:46:42;;;;;;;34.80;19.10;;;;;;;-3.55;80.56;101171.94;1650756;86;25733;-78
2021/12/22 03:49:11;;;;;;;39.35;19.90;;;;;;;-3.53;80.60;101176.00;1649486;87;26158;-77
2021/12/22 03:51:48;;;;;;;37.98;21.02;;;;;;;-3.50;80.63;101173.49;1651583;86;25460;-77
2021/12/22 03:54:14;;;;;;;37.73;20.57;;;;;;;-3.46;80.56;101181.34;1653418;85;28238;-76
2021/12/22 03:56:41;;;;;;;37.48;20.02;;;;;;;-3.44;80.54;101184.61;1651657;86;25544;-76
2021/12/22 03:59:08;;;;;;;41.02;22.22;;;;;;;-3.43;80.54;101183.61;1651745;86;25607;-75
2021/12/22 04:01:36;;;;;;;42.93;22.17;;;;;;;-3.41;80.48;101177.61;1625836;86;26218;-75
2021/12/22 04:04:14;;;;;;;40.73;21.25;;;;;;;-3.39;80.47;101183.52;1651652;86;25463;-75
2021/12/22 04:06:32;;;;;;;;;;;;;;;-3.38;80.34;101182.52;1652724;86;27345;-75
2021/12/22 04:08:59;;;;;;;41.25;20.43;;;;;;;-3.37;80.38;101188.13;1651580;86;25637;-75
2021/12/22 04:11:26;;;;;;;39.63;22.48;;;;;;;-3.39;80.29;101172.94;1627808;86;25668;-76
2021/12/22 04:13:52;;;;;;;40.35;22.27;;;;;;;-3.39;80.27;101180.38;1630545;86;25801;-76
2021/12/22 04:16:19;;;;;;;41.63;22.62;;;;;;;-3.40;80.25;101185.35;1651598;86;25422;-76
2021/12/22 04:18:46;;;;;;;45.85;23.75;;;;;;;-3.38;80.29;101192.58;1651632;86;27328;-76
2021/12/22 04:21:12;;;;;;;45.30;22.67;;;;;;;-3.38;80.33;101191.27;1651533;86;25689;-76
2021/12/22 04:23:42;;;;;;;47.30;23.92;;;;;;;-3.38;80.29;101185.97;1654044;86;25270;-76
2021/12/22 04:26:10;;;;;;;42.83;22.05;;;;;;;-3.39;80.36;101189.64;1651605;86;26343;-76
2021/12/22 04:28:37;;;;;;;41.90;22.22;;;;;;;-3.41;80.19;101191.64;1651575;86;25635;-76
2021/12/22 04:31:03;;;;;;;44.93;22.98;;;;;;;-3.42;80.19;101190.55;1651587;86;27337;-76
2021/12/22 04:33:30;;;;;;;40.92;21.23;;;;;;;-3.44;80.21;101191.22;1630446;86;25597;-76
2021/12/22 04:35:57;;;;;;;35.25;20.05;;;;;;;-3.44;80.16;101189.41;1651563;86;25562;-76
2021/12/22 04:38:24;;;;;;;39.10;20.75;;;;;;;-3.44;80.25;101188.09;1651503;86;25787;-75
2021/12/22 04:40:51;;;;;;;34.98;20.32;;;;;;;-3.43;80.20;101188.89;1648361;86;25577;-75
2021/12/22 04:43:18;;;;;;;40.10;20.68;;;;;;;-3.46;80.19;101187.95;1651540;86;27917;-76
2021/12/22 04:45:44;;;;;;;35.55;20.45;;;;;;;-3.45;80.21;101197.02;1651526;86;25683;-75
2021/12/22 04:48:11;;;;;;;39.15;21.48;;;;;;;-3.43;80.33;101195.52;1651632;86;25387;-76
2021/12/22 04:50:39;;;;;;;39.88;20.17;;;;;;;-3.42;80.27;101197.16;1651596;86;25651;-76
2021/12/22 04:53:21;;;;;;;41.48;21.33;;;;;;;-3.41;80.25;101198.25;1627933;86;25303;-76
2021/12/22 04:55:40;;;;;;;38.95;21.25;;;;;;;-3.39;80.27;101199.39;1596843;89;27375;-76
2021/12/22 04:58:08;;;;;;;37.23;21.25;;;;;;;-3.38;80.24;101197.06;1597359;89;25890;-76
2021/12/22 05:00:37;;;;;;;42.23;21.60;;;;;;;-3.38;80.26;101205.00;1597336;89;25633;-76
2021/12/22 05:03:04;;;;;;;41.20;22.02;;;;;;;-3.36;80.25;101210.11;1603174;89;25590;-76
2021/12/22 05:05:31;;;;;;;40.08;20.85;;;;;;;-3.34;80.25;101210.72;1597325;89;25565;-76
2021/12/22 05:07:57;;;;;;;40.58;20.65;;;;;;;-3.32;80.32;101204.72;1597383;89;27501;-76
2021/12/22 05:10:26;;;;;;;37.95;20.25;;;;;;;-3.30;80.30;101207.98;1597294;89;25666;-76
2021/12/22 05:12:53;;;;;;;37.85;20.02;;;;;;;-3.29;80.32;101210.95;1597580;89;25855;-76
2021/12/22 05:15:22;;;;;;;39.48;20.40;;;;;;;-3.27;80.29;101211.09;1597266;89;26352;-76
2021/12/22 05:20:22;;;;;;;36.88;20.40;;;;;;;-3.22;80.33;101228.52;1597303;89;26960;-76
2021/12/22 05:22:56;;;;;;;36.85;20.50;;;;;;;-3.19;80.36;101227.30;1598754;89;25676;-76
2021/12/22 05:25:26;;;;;;;39.73;20.50;;;;;;;-3.16;80.39;101226.11;1596007;89;25725;-74
2021/12/22 05:27:53;;;;;;;43.48;20.72;;;;;;;-3.14;80.40;101222.23;1603014;89;25703;-75
2021/12/22 05:30:20;;;;;;;39.18;19.65;;;;;;;-3.10;80.33;101227.95;1597325;89;25811;-75
2021/12/22 05:32:47;;;;;;;38.98;21.35;;;;;;;-3.08;80.29;101226.77;1597371;89;27488;-76
2021/12/22 05:35:16;;;;;;;36.33;19.50;;;;;;;-3.07;80.18;101236.32;1596375;89;25685;-75
2021/12/22 05:37:43;;;;;;;33.10;19.35;;;;;;;-3.06;80.17;101231.87;1595394;88;25633;-75
2021/12/22 05:40:10;;;;;;;35.15;18.60;;;;;;;-3.05;80.03;101240.09;1639056;86;25613;-75
2021/12/22 05:42:38;;;;;;;33.33;18.55;;;;;;;-3.07;79.92;101231.54;1651576;86;25382;-75
2021/12/22 05:45:06;;;;;;;33.18;18.60;;;;;;;-3.08;79.84;101237.35;1651577;86;27335;-75
2021/12/22 05:47:33;;;;;;;34.55;18.95;;;;;;;-3.08;79.81;101241.32;1651449;86;25727;-75
2021/12/22 05:50:02;;;;;;;32.48;18.85;;;;;;;-3.10;79.76;101239.38;1651566;86;25732;-75
2021/12/22 05:52:40;;;;;;;31.73;18.30;;;;;;;-3.12;79.68;101243.22;1652626;86;25644;-77
2021/12/22 05:55:14;;;;;;;34.75;18.73;;;;;;;-3.11;79.84;101247.52;1573811;91;25484;-76
2021/12/22 05:57:40;;;;;;;31.93;17.77;;;;;;;-3.11;79.90;101257.59;1573886;91;27427;-76
2021/12/22 06:00:11;;;;;;;41.40;20.43;;;;;;;-3.13;79.85;101258.30;1573780;91;25707;-75
2021/12/22 06:02:38;;;;;;;34.73;19.73;;;;;;;-3.11;79.91;101263.40;1573833;91;27060;-74
2021/12/22 06:05:07;;;;;;;34.88;19.98;;;;;;;-3.12;79.86;101266.52;1573861;91;25715;-74
2021/12/22 06:07:34;;;;;;;34.35;20.12;;;;;;;-3.11;79.99;101268.17;1573945;91;25731;-74
2021/12/22 06:10:01;;;;;;;39.67;20.82;;;;;;;-3.09;79.98;101267.98;1573921;91;27983;-74
2021/12/22 06:12:27;;;;;;;38.90;19.82;;;;;;;-3.08;79.93;101274.89;1573779;91;25609;-74
2021/12/22 06:14:54;;;;;;;38.05;21.20;;;;;;;-3.08;79.98;101272.25;1573899;91;25668;-75
2021/12/22 06:17:20;;;;;;;37.78;21.25;;;;;;;-3.07;79.93;101283.97;1573745;91;25747;-75
2021/12/22 06:19:47;;;;;;;36.85;20.92;;;;;;;-3.07;79.89;101293.23;1573778;90;25683;-75
2021/12/22 06:22:21;;;;;;;35.00;19.70;;;;;;;-3.07;79.96;101299.85;1574442;91;27335;-75
2021/12/22 06:24:49;;;;;;;33.30;19.95;;;;;;;-3.05;79.96;101304.95;1556279;91;25285;-74
2021/12/22 06:27:15;;;;;;;35.40;19.92;;;;;;;-3.03;80.01;101307.73;1573656;91;25700;-74
2021/12/22 06:29:42;;;;;;;39.98;21.27;;;;;;;-3.02;79.96;101308.55;1573861;91;26190;-75
2021/12/22 06:32:10;;;;;;;36.88;20.08;;;;;;;-3.02;79.99;101307.22;1573861;91;25641;-74
2021/12/22 06:34:37;;;;;;;35.60;20.72;;;;;;;-3.01;79.97;101317.62;1573809;91;27357;-74
2021/12/22 06:37:06;;;;;;;38.13;21.48;;;;;;;-2.99;80.00;101312.64;1571329;90;25539;-74
2021/12/22 06:39:33;;;;;;;;;;;;;;;-2.99;79.98;101316.62;1565658;90;25496;-74
2021/12/22 06:42:01;;;;;;;38.70;20.55;;;;;;;-2.96;80.07;101318.85;1563423;91;25836;-73
2021/12/22 06:44:28;;;;;;;35.78;20.32;;;;;;;-2.95;80.10;101323.15;1563427;90;25585;-74
2021/12/22 06:46:54;;;;;;;40.55;22.07;;;;;;;-2.96;80.03;101320.17;1563451;90;27545;-74
2021/12/22 06:49:23;;;;;;;43.75;21.15;;;;;;;-2.96;80.04;101322.34;1563247;91;25688;-74
2021/12/22 06:51:55;;;;;;;37.25;21.45;;;;;;;-2.95;80.10;101321.31;1592099;88;25678;-75
2021/12/22 06:54:46;;;;;;;42.65;22.52;;;;;;;-2.94;80.04;101316.34;1632723;86;26400;-76
2021/12/22 06:57:15;;;;;;;38.55;21.68;;;;;;;-2.92;79.95;101317.47;1574287;90;25778;-75
2021/12/22 06:59:41;;;;;;;40.45;22.15;;;;;;;-2.94;79.89;101315.53;1573807;91;27352;-75
2021/12/22 07:02:08;;;;;;;49.25;25.82;;;;;;;-2.94;79.99;101313.69;1573884;91;25683;-74
2021/12/22 07:04:34;;;;;;;48.83;27.15;;;;;;;-2.92;80.04;101314.31;1573695;91;25759;-74
2021/12/22 07:07:01;;;;;;;46.33;23.50;;;;;;;-2.91;79.94;101314.63;1573919;91;25715;-75
2021/12/22 07:09:27;;;;;;;40.75;22.98;;;;;;;-2.88;79.92;101320.88;1574001;91;25711;-75
2021/12/22 07:11:54;;;;;;;43.65;23.50;;;;;;;-2.87;79.87;101326.97;1574017;91;28212;-74
2021/12/22 07:14:20;;;;;;;41.70;23.42;;;;;;;-2.88;79.84;101320.88;1573816;91;25852;-75
2021/12/22 07:16:47;;;;;;;40.33;22.30;;;;;;;-2.88;79.88;101327.48;1573831;91;25670;-74
2021/12/22 07:19:14;;;;;;;41.28;22.77;;;;;;;-2.88;79.94;101328.81;1573755;91;26155;-74
2021/12/22 07:21:49;;;;;;;41.85;23.70;;;;;;;-2.87;80.00;101323.00;1573989;91;25659;-75
2021/12/22 07:24:20;;;;;;;51.88;26.02;;;;;;;-2.86;80.01;101327.27;1575432;91;25883;-74
2021/12/22 07:26:46;;;;;;;54.18;28.45;;;;;;;-2.85;80.04;101329.72;1573854;91;25702;-74
2021/12/22 07:29:13;;;;;;;48.20;25.68;;;;;;;-2.82;80.03;101331.18;1574173;91;25689;-74
2021/12/22 07:31:39;;;;;;;45.92;23.12;;;;;;;-2.83;80.09;101334.34;1574045;91;26190;-76
2021/12/22 07:34:17;;;;;;;49.50;23.12;;;;;;;-2.80;80.05;101336.28;1588534;88;25410;-75
2021/12/22 07:37:20;;;;;;;42.65;23.10;;;;;;;-2.79;80.08;101338.74;1630695;86;27353;-75
2021/12/22 07:39:46;;;;;;;43.58;23.65;;;;;;;-2.79;79.96;101350.66;1630816;88;25604;-75
2021/12/22 07:42:13;;;;;;;44.77;23.30;;;;;;;-2.79;79.90;101348.02;1630839;88;25413;-75
2021/12/22 07:44:40;;;;;;;47.85;25.05;;;;;;;-2.77;79.98;101339.88;1630757;88;25627;-75
2021/12/22 07:47:07;;;;;;;41.42;23.18;;;;;;;-2.76;79.94;101338.33;1630884;88;25640;-73
2021/12/22 07:49:34;;;;;;;41.95;22.60;;;;;;;-2.75;79.99;101348.44;1630686;88;27927;-75
2021/12/22 07:52:11;;;;;;;43.08;24.15;;;;;;;-2.73;79.95;101345.08;1631068;88;25581;-74
2021/12/22 07:54:39;;;;;;;45.67;24.57;;;;;;;-2.70;80.01;101355.30;1630572;88;25579;-75
2021/12/22 07:57:07;;;;;;;40.88;22.32;;;;;;;-2.71;80.01;101343.86;1630711;88;26175;-75
2021/12/22 07:59:33;;;;;;;43.95;23.02;;;;;;;-2.68;80.04;101347.45;1630717;87;25746;-75
2021/12/22 08:02:00;;;;;;;40.92;22.27;;;;;;;-2.65;80.03;101352.36;1630749;88;27326;-75
2021/12/22 08:04:26;;;;;;;41.48;22.75;;;;;;;-2.64;80.12;101348.71;1630607;88;25675;-75
2021/12/22 08:06:53;;;;;;;41.37;21.48;;;;;;;-2.60;80.07;101337.73;1630823;88;25584;-76
2021/12/22 08:09:25;;;;;;;40.95;22.70;;;;;;;-2.60;79.92;101345.67;1630677;88;25633;-76
2021/12/22 08:11:48;;;;;;;40.92;22.80;;;;;;;-2.58;80.11;101343.13;1631149;87;25478;-75
2021/12/22 08:14:15;;;;;;;43.38;22.32;;;;;;;-2.55;80.01;101351.20;1630764;88;27385;-75
2021/12/22 08:16:41;;;;;;;39.48;20.85;;;;;;;-2.55;79.77;101344.06;1630704;88;25671;-75
2021/12/22 08:19:08;;;;;;;47.93;22.82;;;;;;;-2.56;79.70;101346.91;1630843;88;25649;-75
2021/12/22 08:21:34;;;;;;;42.20;21.50;;;;;;;-2.54;79.87;101346.20;1630601;88;25611;-75
2021/12/22 08:24:01;;;;;;;44.70;21.40;;;;;;;-2.52;80.06;101343.68;1619967;87;25470;-75
2021/12/22 08:26:27;;;;;;;42.95;21.87;;;;;;;-2.47;80.12;101358.48;1630641;88;27339;-75
2021/12/22 08:28:55;;;;;;;38.02;20.37;;;;;;;-2.44;80.07;101358.06;1630637;88;25482;-74
2021/12/22 08:31:21;;;;;;;41.77;20.92;;;;;;;-2.39;80.09;101367.27;1630648;88;25678;-74
2021/12/22 08:33:48;;;;;;;39.78;20.97;;;;;;;-2.36;80.06;101366.38;1630679;88;25780;-74
2021/12/22 08:39:06;;;;;;;44.13;21.90;;;;;;;-2.30;79.78;101356.80;1639237;87;27926;-74
2021/12/22 08:41:37;;;;;;;47.43;23.42;;;;;;;-2.26;79.75;101357.55;1641543;87;25393;-74
2021/12/22 08:44:08;;;;;;;42.60;21.80;;;;;;;-2.22;79.67;101357.97;1641636;87;25577;-74
2021/12/22 08:46:37;;;;;;;42.38;21.23;;;;;;;-2.23;79.33;101355.51;1641561;87;25677;-75
2021/12/22 08:49:06;;;;;;;37.53;20.50;;;;;;;-2.24;79.31;101361.84;1620144;87;25454;-75
2021/12/22 08:51:33;;;;;;;41.35;20.60;;;;;;;-2.21;79.42;101364.91;1641541;87;27858;-75
2021/12/22 08:54:04;;;;;;;37.78;20.48;;;;;;;-2.17;79.48;101370.64;1644149;87;25217;-74
2021/12/22 08:56:30;;;;;;;39.30;20.60;;;;;;;-2.11;79.62;101364.03;1640795;86;25576;-75
2021/12/22 08:58:57;;;;;;;35.70;20.57;;;;;;;-2.08;79.29;101357.02;1641625;87;26286;-75
2021/12/22 09:01:26;;;;;;;34.83;20.10;;;;;;;-2.05;79.16;101356.30;1641592;87;25649;-75
2021/12/22 09:03:53;;;;;;;40.52;21.48;;;;;;;-2.03;78.99;101351.09;1619622;87;27481;-75
2021/12/22 09:06:20;;;;;;;38.17;19.45;;;;;;;-2.02;78.74;101359.89;1620733;87;26760;-75
2021/12/22 09:08:46;;;;;;;36.03;19.45;;;;;;;-1.98;78.99;101379.67;1641638;87;25565;-75
2021/12/22 09:11:13;;;;;;;36.58;20.37;;;;;;;-1.95;79.00;101387.24;1641593;87;26232;-75
2021/12/22 09:13:41;;;;;;;36.23;20.17;;;;;;;-1.90;79.31;101375.52;1638250;87;25642;-75
2021/12/22 09:16:11;;;;;;;39.03;21.33;;;;;;;-1.83;79.38;101382.18;1620290;88;28182;-75
2021/12/22 09:18:38;;;;;;;;;;;;;;;-1.76;79.21;101386.98;1624069;88;25753;-75
2021/12/22 09:21:07;;;;;;;36.75;18.27;;;;;;;-1.69;79.23;101393.12;1622357;88;25784;-75
2021/12/22 09:23:34;;;;;;;36.88;20.15;;;;;;;-1.63;79.06;101391.52;1625769;87;26167;-74
2021/12/22 09:26:01;;;;;;;34.95;19.48;;;;;;;-1.57;78.91;101391.51;1622232;87;25669;-75
2021/12/22 09:28:27;;;;;;;37.28;20.02;;;;;;;-1.52;78.87;101385.61;1622336;88;27336;-75
2021/12/22 09:30:54;;;;;;;40.20;21.27;;;;;;;-1.47;78.44;101385.01;1622345;87;25703;-75
2021/12/22 09:33:23;;;;;;;47.98;20.08;;;;;;;-1.43;78.52;101388.88;1622330;88;25445;-75
2021/12/22 09:35:51;;;;;;;51.60;25.65;;;;;;;-1.38;78.46;101393.08;1622460;88;25810;-76
2021/12/22 09:38:18;;;;;;;52.80;26.37;;;;;;;-1.33;78.15;101400.76;1622261;87;25659;-75
2021/12/22 09:40:46;;;;;;;41.53;22.82;;;;;;;-1.29;78.15;101399.00;1622585;88;27444;-75
2021/12/22 09:43:13;;;;;;;38.70;21.62;;;;;;;-1.26;77.77;101398.60;1622236;88;25605;-75
2021/12/22 09:45:47;;;;;;;41.42;22.17;;;;;;;-1.26;77.40;101394.62;1595141;88;25517;-75
2021/12/22 09:53:19;;;;;;;38.92;21.52;;;;;;;-1.28;77.00;101389.51;1601187;88;27269;-75
2021/12/22 09:55:48;;;;;;;36.68;20.82;;;;;;;-1.28;76.77;101389.51;1622310;88;25719;-75
2021/12/22 09:58:15;;;;;;;34.45;19.82;;;;;;;-1.29;76.42;101385.73;1623079;85;25604;-75
2021/12/22 10:00:43;;;;;;;29.60;18.40;;;;;;;-1.35;76.22;101386.84;1628452;87;25816;-74
2021/12/22 10:03:12;;;;;;;34.35;19.48;;;;;;;-1.39;76.12;101384.82;1647406;86;25570;-75
2021/12/22 10:05:41;;;;;;;31.95;18.98;;;;;;;-1.40;76.31;101383.98;1657312;86;27358;-74
2021/12/22 10:08:18;;;;;;;35.85;19.70;;;;;;;-1.38;76.56;101374.49;1647286;86;25735;-75
2021/12/22 10:11:06;;;;;;;32.23;19.37;;;;;;;-1.35;76.33;101376.75;1645193;85;25575;-75
2021/12/22 10:13:34;;;;;;;40.25;20.95;;;;;;;-1.31;76.44;101371.36;1641849;87;25609;-75
2021/12/22 10:16:18;;;;;;;37.33;19.67;;;;;;;-1.25;76.57;101373.18;1648768;86;25492;-76
2021/12/22 10:18:45;;;;;;;38.30;19.92;;;;;;;-1.19;76.64;101379.02;1648899;87;27407;-75
2021/12/22 10:21:21;;;;;;;32.70;18.85;;;;;;;-1.12;76.21;101372.37;1642543;87;25709;-75
2021/12/22 10:23:53;;;;;;;38.83;20.97;;;;;;;-1.13;75.87;101378.18;1651198;84;25455;-76
2021/12/22 10:26:23;;;;;;;37.48;19.80;;;;;;;-1.11;75.59;101380.63;1623759;87;25784;-74
2021/12/22 10:29:00;;;;;;;33.02;19.20;;;;;;;-1.11;75.84;101382.48;1647319;85;25559;-74
2021/12/22 10:31:43;;;;;;;70.67;33.48;;;;;;;-1.08;75.68;101379.42;1663366;85;27362;-74
2021/12/22 10:34:17;;;;;;;42.55;23.05;;;;;;;-1.07;75.77;101375.73;1645725;86;25816;-75
2021/12/22 10:36:55;;;;;;;39.10;18.95;;;;;;;-1.06;75.29;101376.05;1646762;85;25643;-72
2021/12/22 10:39:29;;;;;;;30.62;16.70;;;;;;;-1.08;74.90;101376.77;1653821;86;25669;-74
2021/12/22 10:42:09;;;;;;;31.95;16.87;;;;;;;-1.10;74.61;101374.83;1654098;86;25343;-74
2021/12/22 10:44:42;;;;;;;31.80;18.45;;;;;;;-1.09;74.83;101364.50;1647000;86;27896;-74
2021/12/22 10:49:14;;;;;;;37.42;19.35;;;;;;;-1.09;74.59;101364.50;1653944;86;25627;-74
2021/12/22 10:50:06;;;;;;;31.80;18.07;;;;;;;-1.06;74.84;101375.52;1654045;86;25771;-74
2021/12/22 10:52:37;;;;;;;32.20;17.12;;;;;;;-1.04;74.60;101366.03;1657726;86;25660;-75
2021/12/22 10:55:14;;;;;;;28.00;16.62;;;;;;;-1.02;74.68;101375.93;1652938;86;25520;-76
2021/12/22 10:57:45;;;;;;;30.37;17.17;;;;;;;-1.01;74.46;101378.38;1649120;86;27342;-76
2021/12/22 11:00:26;;;;;;;38.28;19.45;;;;;;;-1.00;74.31;101372.58;1649060;87;25661;-76
2021/12/22 11:03:08;;;;;;;34.27;16.62;;;;;;;-1.01;73.97;101381.55;1649055;87;25588;-76
2021/12/22 11:05:47;;;;;;;35.43;19.23;;;;;;;-1.05;73.87;101378.50;1628402;87;26174;-76
2021/12/22 11:08:23;;;;;;;33.95;17.90;;;;;;;-1.02;74.24;101370.61;1649273;87;25429;-75
2021/12/22 11:10:52;;;;;;;31.73;16.97;;;;;;;-0.99;74.17;101361.75;1649162;87;27488;-76
2021/12/22 11:13:25;;;;;;;35.65;18.55;;;;;;;-0.98;74.09;101368.68;1593674;89;25519;-76
2021/12/22 11:15:53;;;;;;;30.80;16.93;;;;;;;-0.99;73.76;101362.24;1581077;89;25695;-76
2021/12/22 11:18:29;;;;;;;33.55;17.67;;;;;;;-1.00;73.45;101361.95;1585505;89;25650;-76
2021/12/22 11:21:23;;;;;;;33.30;18.30;;;;;;;-1.02;73.37;101362.65;1619105;88;25629;-76
2021/12/22 11:23:47;;;;;;;32.65;17.62;;;;;;;-1.07;73.46;101366.43;1621047;87;28531;-75
2021/12/22 11:26:13;;;;;;;35.13;18.27;;;;;;;-1.05;73.85;101369.72;1619003;88;25722;-74
2021/12/22 11:28:41;;;;;;;34.90;18.37;;;;;;;-1.10;73.40;101366.87;1619121;88;25445;-75
2021/12/22 11:31:10;;;;;;;33.20;18.67;;;;;;;-1.14;73.67;101363.80;1628424;88;25694;-74
2021/12/22 11:33:39;;;;;;;37.30;19.23;;;;;;;-1.15;73.74;101370.13;1625006;87;25478;-75
2021/12/22 11:36:08;;;;;;;39.55;20.45;;;;;;;-1.15;73.76;101366.14;1619317;88;27521;-74
2021/12/22 11:38:35;;;;;;;36.28;19.42;;;;;;;-1.17;73.79;101365.02;1597286;88;25795;-75
2021/12/22 11:41:10;;;;;;;35.80;19.60;;;;;;;-1.14;73.95;101366.46;1619077;88;25576;-75
2021/12/22 11:43:38;;;;;;;31.73;17.98;;;;;;;-1.13;73.82;101368.89;1618919;88;25679;-75
2021/12/22 11:46:06;;;;;;;31.07;16.12;;;;;;;-1.14;73.64;101365.94;1619208;88;25503;-75
2021/12/22 11:48:36;;;;;;;34.23;17.60;;;;;;;-1.20;73.09;101361.95;1618931;87;27396;-76
2021/12/22 11:51:03;;;;;;;;;;;;;;;-1.24;73.29;101359.39;1620427;88;26232;-75